Etusivu
METAR-TAF:

METAR-TAF

Lentoasemat :

Malén kansainvälinen lentoasema

Malé, Malediivit

Leveyspiiri: 04-12N, Pituuspiiri: 073-32E, korkeus merenpinnasta: 2 m

Tämänhetkinen sää

Tämä raportti tehtiin 1 tunti ja 14 minuuttia sitten, kello 10.00 UTC
Tuuli 5 kn lännestä
Lämpötila 33°C
Kosteus 63%
Ilmanpaine 1010 hPa
Näkyvyys 10 km tai enemmän
Muutamia pilviä 1800 ft:n korkeudessa

METAR: VRMM 071000Z 28005KT 9999 FEW018 33/25 Q1010 NOSIG

Aika: 16:14 (11:14 UTC)

Sääennuste

Tämä raportti tehtiin 6 tuntia ja 14 minuuttia sitten, kello 05.00 UTC
Ennuste voimassa 07. päivästä klo 06 UTC - 08. päivään klo 12 UTC
Tuuli 2 kn eri suunnista
Näkyvyys 10 km tai enemmän
Muutamia pilviä 1800 ft:n korkeudessa

TAF: VRMM 070500Z 0706/0812 VRB02KT 9999 FEW018

Säähavainnot ja -ennusteet yli 4000 lentoasemalta (METAR- ja TAF-raportit).

Käytössä olevat sääasemat on merkitty karttaan keltaisilla ja punaisilla pisteillä.

Aseta hiiri pisteen päälle nähdäksesi sääaseman nimen.

Klikkaa sitten nähdäksesi säähavainnot ja -ennusteet.

Kartan vaihtaminen: klikkaa mustalla rastilla varustettuja vihreitä pisteitä, niin voit zoomata sisään; viivalla varustettua vihreää pistettä, niin voit zoomata ulos tai vihreitä nuolia, niin pääset viereisille kartoille.


METAR-TAF: